Terminal Aerodrome Forecast
Issued by NWS Lake Charles, LA

Home | Current Version | Previous Version | Text Only | Print | Product List | Glossary On
Versions: 1 2 3 4 5 6 7 8 9 10 11 12
264
FTUS44 KLCH 271139
TAFLFT
TAF
KLFT 271139Z 2712/2812 01010KT P6SM OVC018
     FM271500 02008KT P6SM SKC
     FM271700 07010KT P6SM SKC
     FM272200 12008KT P6SM SKC
     FM280900 18008KT 4SM BR BKN014=

USA.gov is the U.S. government's official web portal to all federal, state and local government web resources and services.